Terminal Aerodrome Forecast
Issued by NWS Sterling, VA

Home | Current Version | Previous Version | Text Only | Print | Product List | Glossary On
Versions: 1 2 3 4 5 6 7 8 9 10 11 12 13 14 15 16
000
FTUS41 KLWX 050055 AAB
TAFMRB
TAF AMD
KMRB 050055Z 0501/0524 VRB04KT P6SM SCT060
      TEMPO 0501/0502 09010G20KT -TSRA BKN050CB
     FM050200 11006KT P6SM SCT015 BKN050
     FM050500 07005KT 4SM BR BKN008
     FM051400 09005KT P6SM BKN015
     FM051700 09005KT P6SM SCT050=

USA.gov is the U.S. government's official web portal to all federal, state and local government web resources and services.